Dundee, Michigan
Current Conditions -  °F | °C
As of 6:55 PM on Friday 31 Oct 2014 (Local Time) from KTTF Reporting Station
Light Rain Light Rain  
Wind Chill: 26°   Ceiling: 1800
Heat Index: 37°   Visibility: 7mi
Dew Point: 34°   Wind: 23mph
Humidity: 87%   Direction: 350°N
Pressure: 29.97"   Gusts: 33mph
Location:  41.96°N, 83.66°W
Report Text: KTTF 312255Z AUTO 35020G29KT 7SM -RA BKN018 OVC025 03/01 A2997 RMK AO2
Loading
Personal Weather Stations






























Interactive Weather Map
Tropical Storm Tracking
New forecast layout! Learn more

10-Day Weather Forecast

Advertisements
Track Severe Weather on mobile